createdAt,value
2022-10-01T00:02:01.398Z,100312.03
2022-10-01T00:05:03.981Z,100311.19
2022-10-01T00:08:06.597Z,100309.19
2022-10-01T00:11:14.105Z,100300.78
2022-10-01T00:14:17.364Z,100302.13
2022-10-01T00:17:33.718Z,100301.72
2022-10-01T00:20:36.372Z,100288.72
2022-10-01T00:23:39.289Z,100291.19
2022-10-01T00:26:45.432Z,100282.59
2022-10-01T00:29:47.958Z,100281.78
2022-10-01T00:32:53.751Z,100266.81
2022-10-01T00:35:56.900Z,100278.31
2022-10-01T00:39:01.035Z,100272.75
2022-10-01T00:42:06.344Z,100273.38
2022-10-01T00:45:11.839Z,100267.00
2022-10-01T00:48:14.418Z,100265.44
2022-10-01T00:51:17.176Z,100251.56
2022-10-01T00:54:24.092Z,100251.31
2022-10-01T00:57:28.516Z,100253.81
2022-10-01T01:00:32.028Z,100243.69
2022-10-01T01:03:34.694Z,100236.72
2022-10-01T01:06:37.617Z,100232.16
2022-10-01T01:09:44.687Z,100227.84
2022-10-01T01:13:06.020Z,100226.78
2022-10-01T01:16:14.085Z,100224.25
2022-10-01T01:19:35.026Z,100225.97
2022-10-01T01:22:42.074Z,100220.50
2022-10-01T01:25:48.949Z,100223.25
2022-10-01T01:28:58.277Z,100217.38
2022-10-01T01:32:09.418Z,100209.00
2022-10-01T01:35:22.369Z,100203.50
2022-10-01T01:38:29.128Z,100198.16
2022-10-01T01:41:36.703Z,100185.84
2022-10-01T01:44:46.915Z,100184.75
2022-10-01T01:47:50.352Z,100177.28
2022-10-01T01:50:58.343Z,100172.47
2022-10-01T01:54:01.303Z,100180.31
2022-10-01T01:57:05.051Z,100170.28
2022-10-01T02:00:11.392Z,100156.66
2022-10-01T02:03:13.971Z,100156.03
2022-10-01T02:06:29.019Z,100152.97
2022-10-01T02:09:35.961Z,100143.00
2022-10-01T02:12:49.936Z,100142.34
2022-10-01T02:16:04.193Z,100130.00
2022-10-01T02:19:18.600Z,100141.28
2022-10-01T02:22:24.526Z,100119.25
2022-10-01T02:25:32.989Z,100120.72
2022-10-01T02:28:40.245Z,100111.69
2022-10-01T02:31:46.310Z,100105.38
2022-10-01T02:34:51.068Z,100101.03
2022-10-01T02:37:55.545Z,100100.28
2022-10-01T02:41:03.194Z,100101.47
2022-10-01T02:44:10.974Z,100094.72
2022-10-01T02:47:21.174Z,100091.13
2022-10-01T02:50:27.933Z,100075.41
2022-10-01T02:53:36.176Z,100081.44
2022-10-01T02:56:58.269Z,100074.19
2022-10-01T03:00:03.473Z,100066.91
2022-10-01T03:03:07.342Z,100055.78
2022-10-01T03:06:09.811Z,100052.22
2022-10-01T03:09:12.306Z,100051.88
2022-10-01T03:12:15.562Z,100047.50
2022-10-01T03:15:20.000Z,100042.97
2022-10-01T03:18:23.897Z,100033.56
2022-10-01T03:21:26.840Z,100025.50
2022-10-01T03:24:29.438Z,100020.28
2022-10-01T03:27:32.010Z,100019.19
2022-10-01T03:30:34.646Z,100020.91
2022-10-01T03:33:38.735Z,100013.88
2022-10-01T03:36:41.275Z,100016.53
2022-10-01T03:39:43.748Z,100009.75
2022-10-01T03:42:46.234Z,100012.91
2022-10-01T03:45:48.956Z,100010.38
2022-10-01T03:48:53.317Z,100005.06
2022-10-01T03:51:56.450Z,100013.25
2022-10-01T03:55:00.618Z,100006.66
2022-10-01T03:58:03.554Z,100002.66
2022-10-01T04:01:06.097Z,99999.75
2022-10-01T04:04:09.944Z,100005.16
2022-10-01T04:07:12.419Z,99993.56
2022-10-01T04:10:15.102Z,100007.44
2022-10-01T04:13:18.466Z,100000.06
2022-10-01T04:16:21.156Z,99992.16
2022-10-01T04:19:25.171Z,99984.19
2022-10-01T04:22:27.662Z,99989.41
2022-10-01T04:25:30.934Z,99985.97
2022-10-01T04:28:33.440Z,99975.69
2022-10-01T04:31:37.929Z,99965.75
2022-10-01T04:34:53.875Z,99950.44
2022-10-01T04:37:58.346Z,99956.72
2022-10-01T04:41:00.830Z,99950.53
2022-10-01T04:44:03.870Z,99945.69
2022-10-01T04:47:06.528Z,99932.00
2022-10-01T04:50:10.669Z,99928.97
2022-10-01T04:53:13.191Z,99928.28
2022-10-01T04:56:15.696Z,99921.56
2022-10-01T04:59:18.301Z,99913.00
2022-10-01T05:02:21.231Z,99902.22
2022-10-01T05:05:28.070Z,99883.03
2022-10-01T05:08:31.155Z,99877.59
2022-10-01T05:11:34.682Z,99864.56
2022-10-01T05:14:37.394Z,99860.59
2022-10-01T05:17:39.908Z,99855.19
2022-10-01T05:20:43.798Z,99849.13
2022-10-01T05:23:46.310Z,99844.09
2022-10-01T05:26:48.783Z,99848.13
2022-10-01T05:29:51.256Z,99818.09
2022-10-01T05:32:57.739Z,99830.84
2022-10-01T05:36:01.869Z,99821.88
2022-10-01T05:39:04.625Z,99824.28
2022-10-01T05:42:07.127Z,99818.59
2022-10-01T05:45:11.108Z,99821.47
2022-10-01T05:48:13.755Z,99821.81
2022-10-01T05:51:18.798Z,99825.66
2022-10-01T05:54:23.152Z,99820.78
2022-10-01T05:57:25.714Z,99815.41
2022-10-01T06:00:29.544Z,99814.78
2022-10-01T06:03:32.250Z,99812.69
2022-10-01T06:06:36.066Z,99802.88
2022-10-01T06:09:38.536Z,99807.19
2022-10-01T06:12:41.208Z,99809.53
2022-10-01T06:15:43.699Z,99800.16
2022-10-01T06:18:48.437Z,99796.28
2022-10-01T06:21:52.697Z,99793.81
2022-10-01T06:24:57.615Z,99795.66
2022-10-01T06:28:00.763Z,99797.06
2022-10-01T06:31:03.982Z,99788.28
2022-10-01T06:34:06.578Z,99782.63
2022-10-01T06:37:10.525Z,99784.53
2022-10-01T06:40:13.091Z,99769.94
2022-10-01T06:43:15.547Z,99776.69
2022-10-01T06:46:18.065Z,99775.81
2022-10-01T06:49:22.092Z,99778.50
2022-10-01T06:52:43.642Z,99771.41
2022-10-01T06:55:46.492Z,99755.41
2022-10-01T06:58:48.976Z,99749.91
2022-10-01T07:01:56.400Z,99741.13
2022-10-01T07:04:59.684Z,99740.88
2022-10-01T07:08:04.180Z,99733.59
2022-10-01T07:11:09.708Z,99732.91
2022-10-01T07:14:12.190Z,99729.88
2022-10-01T07:17:14.694Z,99717.31
2022-10-01T07:20:18.071Z,99730.28
2022-10-01T07:23:24.349Z,99722.31
2022-10-01T07:26:26.844Z,99722.09
2022-10-01T07:29:30.769Z,99716.41
2022-10-01T07:32:35.214Z,99710.44
2022-10-01T07:35:38.087Z,99715.06
2022-10-01T07:38:43.482Z,99704.47
2022-10-01T07:41:45.987Z,99701.56
2022-10-01T07:44:48.529Z,99707.22
2022-10-01T07:47:54.346Z,99704.69
2022-10-01T07:50:57.726Z,99703.97
2022-10-01T07:54:01.537Z,99704.28
2022-10-01T07:57:04.087Z,99705.06
2022-10-01T08:00:08.466Z,99699.47
2022-10-01T08:03:12.618Z,99689.66
2022-10-01T08:06:15.144Z,99692.94
2022-10-01T08:09:19.009Z,99684.44
2022-10-01T08:12:21.480Z,99685.00
2022-10-01T08:15:23.980Z,99678.00
2022-10-01T08:18:26.528Z,99664.94
2022-10-01T08:21:29.182Z,99662.34
2022-10-01T08:24:34.682Z,99665.47
2022-10-01T08:27:37.804Z,99663.50
2022-10-01T08:30:42.379Z,99659.63
2022-10-01T08:33:45.386Z,99662.09
2022-10-01T08:36:51.882Z,99665.69
2022-10-01T08:39:56.126Z,99660.06
2022-10-01T08:43:06.108Z,99676.84
2022-10-01T08:46:14.673Z,99662.41
2022-10-01T08:49:21.665Z,99658.09
2022-10-01T08:52:27.194Z,99648.03
2022-10-01T08:55:36.544Z,99652.47
2022-10-01T08:58:45.761Z,99652.19
2022-10-01T09:01:48.487Z,99644.31
2022-10-01T09:04:58.893Z,99644.72
2022-10-01T09:08:16.974Z,99643.50
2022-10-01T09:11:42.175Z,99640.59
2022-10-01T09:15:04.418Z,99648.22
2022-10-01T09:18:16.815Z,99643.50
2022-10-01T09:21:21.470Z,99641.41
2022-10-01T09:24:38.178Z,99636.00
2022-10-01T09:27:41.992Z,99641.69
2022-10-01T09:30:49.860Z,99642.16
2022-10-01T09:33:58.967Z,99648.88
2022-10-01T09:37:09.875Z,99647.66
2022-10-01T09:40:17.943Z,99644.63
2022-10-01T09:43:22.979Z,99646.81
2022-10-01T09:46:26.559Z,99638.09
2022-10-01T09:49:33.786Z,99648.22
2022-10-01T09:52:39.741Z,99644.78
2022-10-01T09:55:45.461Z,99645.00
2022-10-01T09:58:56.308Z,99642.56
2022-10-01T10:02:02.125Z,99649.34
2022-10-01T10:05:06.871Z,99652.56
2022-10-01T10:08:15.062Z,99649.38
2022-10-01T10:11:23.610Z,99656.19
2022-10-01T10:14:32.991Z,99650.25
2022-10-01T10:17:37.781Z,99652.94
2022-10-01T10:20:42.586Z,99664.88
2022-10-01T10:23:50.491Z,99649.13
2022-10-01T10:26:54.995Z,99664.66
2022-10-01T10:30:06.744Z,99666.72
2022-10-01T10:33:14.944Z,99666.16
2022-10-01T10:36:17.738Z,99664.41
2022-10-01T10:39:24.178Z,99668.53
2022-10-01T10:42:27.575Z,99677.63
2022-10-01T10:45:36.574Z,99681.88
2022-10-01T10:48:44.418Z,99683.81
2022-10-01T10:51:53.732Z,99679.53
2022-10-01T10:54:57.722Z,99693.31
2022-10-01T10:58:11.760Z,99684.47
2022-10-01T11:01:19.577Z,99695.16
2022-10-01T11:04:29.771Z,99693.22
2022-10-01T11:07:33.282Z,99697.94
2022-10-01T11:10:49.429Z,99697.22
2022-10-01T11:14:09.581Z,99700.53
2022-10-01T11:17:31.354Z,99690.47
2022-10-01T11:20:41.080Z,99696.09
2022-10-01T11:24:02.294Z,99682.25
2022-10-01T11:27:12.349Z,99698.47
2022-10-01T11:30:21.148Z,99689.66
2022-10-01T11:33:35.720Z,99694.75
2022-10-01T11:36:48.038Z,99695.31
2022-10-01T11:39:56.397Z,99696.91
2022-10-01T11:43:05.577Z,99699.59
2022-10-01T11:46:12.978Z,99697.97
2022-10-01T11:49:26.440Z,99711.28
2022-10-01T11:52:36.279Z,99711.78
2022-10-01T11:56:01.075Z,99718.16
2022-10-01T11:59:07.102Z,99712.38
2022-10-01T12:02:19.145Z,99709.00
2022-10-01T12:05:26.645Z,99708.00
2022-10-01T12:08:32.780Z,99712.63
2022-10-01T12:11:41.780Z,99703.56
2022-10-01T12:14:51.206Z,99696.66
2022-10-01T12:17:58.236Z,99697.22
2022-10-01T12:21:07.442Z,99700.28
2022-10-01T12:24:15.047Z,99706.50
2022-10-01T12:27:40.791Z,99691.91
2022-10-01T12:30:49.648Z,99699.75
2022-10-01T12:34:06.349Z,99704.84
2022-10-01T12:37:22.213Z,99703.28
2022-10-01T12:40:32.858Z,99711.75
2022-10-01T12:43:55.576Z,99707.38
2022-10-01T12:47:12.438Z,99712.00
2022-10-01T12:50:28.137Z,99713.81
2022-10-01T12:53:38.587Z,99718.09
2022-10-01T12:56:48.113Z,99702.16
2022-10-01T13:00:03.377Z,99713.31
2022-10-01T13:03:36.785Z,99717.25
2022-10-01T13:06:51.462Z,99730.06
2022-10-01T13:10:05.868Z,99724.78
2022-10-01T13:13:13.467Z,99728.91
2022-10-01T13:16:28.831Z,99738.28
2022-10-01T13:19:40.871Z,99748.94
2022-10-01T13:22:48.189Z,99742.94
2022-10-01T13:26:02.979Z,99743.44
2022-10-01T13:29:25.435Z,99736.69
2022-10-01T13:32:32.147Z,99734.28
2022-10-01T13:35:39.149Z,99741.66
2022-10-01T13:38:43.712Z,99757.84
2022-10-01T13:41:47.998Z,99792.47
2022-10-01T13:44:56.381Z,99817.75
2022-10-01T13:48:07.804Z,99820.28
2022-10-01T13:51:13.318Z,99836.13
2022-10-01T13:54:27.590Z,99837.50
2022-10-01T13:57:35.106Z,99833.47
2022-10-01T14:00:49.082Z,99831.25
2022-10-01T14:03:57.584Z,99841.56
2022-10-01T14:07:04.526Z,99845.31
2022-10-01T14:10:11.892Z,99845.03
2022-10-01T14:13:38.455Z,99829.84
2022-10-01T14:16:43.405Z,99833.97
2022-10-01T14:19:46.937Z,99832.25
2022-10-01T14:23:03.917Z,99836.72
2022-10-01T14:26:18.997Z,99840.75
2022-10-01T14:29:38.608Z,99845.69
2022-10-01T14:32:59.317Z,99847.34
2022-10-01T14:36:09.132Z,99855.09
2022-10-01T14:39:16.519Z,99853.94
2022-10-01T14:42:19.389Z,99857.59
2022-10-01T14:45:23.317Z,99860.91
2022-10-01T14:48:29.386Z,99856.31
2022-10-01T14:51:32.064Z,99865.25
2022-10-01T14:54:43.995Z,99870.31
2022-10-01T14:57:49.419Z,99863.31
2022-10-01T15:00:55.115Z,99861.16
2022-10-01T15:03:57.731Z,99876.97
2022-10-01T15:07:14.321Z,99881.88
2022-10-01T15:10:19.377Z,99885.97
2022-10-01T15:13:26.684Z,99892.75
2022-10-01T15:16:33.146Z,99897.91
2022-10-01T15:19:42.024Z,99904.94
2022-10-01T15:22:47.928Z,99903.69
2022-10-01T15:25:51.248Z,99903.69
2022-10-01T15:29:03.526Z,99908.38
2022-10-01T15:32:07.944Z,99920.56
2022-10-01T15:35:13.826Z,99918.03
2022-10-01T15:38:16.628Z,99915.03
2022-10-01T15:41:32.597Z,99917.56
2022-10-01T15:44:42.564Z,99918.66
2022-10-01T15:47:52.181Z,99930.59
2022-10-01T15:51:00.204Z,99925.09
2022-10-01T15:54:08.270Z,99932.31
2022-10-01T15:57:18.040Z,99929.34
2022-10-01T16:00:26.703Z,99929.53
2022-10-01T16:03:34.397Z,99934.81
2022-10-01T16:06:40.654Z,99948.34
2022-10-01T16:09:52.628Z,99950.91
2022-10-01T16:12:55.133Z,99953.88
2022-10-01T16:16:13.785Z,99959.78
2022-10-01T16:19:29.881Z,99964.47
2022-10-01T16:22:33.895Z,99964.44
2022-10-01T16:25:44.630Z,99970.84
2022-10-01T16:28:47.167Z,99979.94
2022-10-01T16:31:51.375Z,99993.69
2022-10-01T16:35:17.369Z,99989.09
2022-10-01T16:38:19.859Z,100004.47
2022-10-01T16:41:25.411Z,100005.75
2022-10-01T16:44:28.443Z,100017.28
2022-10-01T16:47:32.147Z,100028.47
2022-10-01T16:50:36.006Z,100027.91
2022-10-01T16:53:39.270Z,100036.66
2022-10-01T16:56:41.787Z,100045.84
2022-10-01T16:59:44.361Z,100050.31
2022-10-01T17:02:47.107Z,100058.63
2022-10-01T17:05:50.926Z,100065.28
2022-10-01T17:08:53.422Z,100077.00
2022-10-01T17:11:56.469Z,100074.47
2022-10-01T17:14:59.178Z,100069.78
2022-10-01T17:18:01.876Z,100084.16
2022-10-01T17:21:06.485Z,100085.91
2022-10-01T17:24:10.742Z,100092.69
2022-10-01T17:27:13.266Z,100100.25
2022-10-01T17:30:15.990Z,100109.06
2022-10-01T17:33:20.114Z,100116.50
2022-10-01T17:36:23.922Z,100121.09
2022-10-01T17:39:26.579Z,100126.44
2022-10-01T17:42:30.766Z,100136.13
2022-10-01T17:45:33.302Z,100137.84
2022-10-01T17:48:35.834Z,100137.09
2022-10-01T17:51:39.670Z,100147.38
2022-10-01T17:54:42.179Z,100153.97
2022-10-01T17:57:44.658Z,100160.09
2022-10-01T18:00:47.216Z,100165.31
2022-10-01T18:03:54.773Z,100173.47
2022-10-01T18:06:59.804Z,100178.47
2022-10-01T18:10:02.411Z,100188.72
2022-10-01T18:13:04.949Z,100193.78
2022-10-01T18:16:11.118Z,100203.78
2022-10-01T18:22:37.865Z,100209.97
2022-10-01T18:25:40.414Z,100209.31
2022-10-01T18:28:43.434Z,100218.44
2022-10-01T18:31:46.664Z,100224.84
2022-10-01T18:34:55.355Z,100235.78
2022-10-01T18:38:03.629Z,100239.41
2022-10-01T18:41:16.909Z,100241.31
2022-10-01T18:44:21.258Z,100238.53
2022-10-01T18:47:33.962Z,100246.72
2022-10-01T18:50:44.029Z,100245.13
2022-10-01T18:54:14.465Z,100245.41
2022-10-01T18:57:31.924Z,100257.09
2022-10-01T19:00:42.683Z,100261.09
2022-10-01T19:04:13.931Z,100266.72
2022-10-01T19:07:34.530Z,100274.78
2022-10-01T19:10:42.173Z,100283.09
2022-10-01T19:13:55.407Z,100289.72
2022-10-01T19:17:06.893Z,100286.88
2022-10-01T19:20:22.227Z,100301.63
2022-10-01T19:23:40.685Z,100305.31
2022-10-01T19:26:50.380Z,100301.38
2022-10-01T19:30:04.324Z,100313.19
2022-10-01T19:33:10.575Z,100310.34
2022-10-01T19:36:22.781Z,100321.13
2022-10-01T19:39:31.077Z,100320.00
2022-10-01T19:42:39.552Z,100318.13
2022-10-01T19:45:49.295Z,100323.38
2022-10-01T19:48:58.651Z,100330.34
2022-10-01T19:52:03.264Z,100336.59
2022-10-01T19:55:13.882Z,100336.78
2022-10-01T19:58:21.173Z,100341.91
2022-10-01T20:01:38.468Z,100344.00
2022-10-01T20:04:51.645Z,100351.19
2022-10-01T20:08:01.311Z,100353.56
2022-10-01T20:11:13.471Z,100361.00
2022-10-01T20:14:55.925Z,100369.53
2022-10-01T20:18:14.515Z,100372.22
2022-10-01T20:21:26.828Z,100374.63
2022-10-01T20:24:44.928Z,100380.00
2022-10-01T20:27:54.826Z,100387.06
2022-10-01T20:31:04.944Z,100391.28
2022-10-01T20:34:17.257Z,100392.31
2022-10-01T20:37:37.433Z,100390.09
2022-10-01T20:40:45.432Z,100402.81
2022-10-01T20:43:51.128Z,100406.72
2022-10-01T20:47:00.675Z,100422.47
2022-10-01T20:50:09.484Z,100419.81
2022-10-01T20:53:24.790Z,100419.97
2022-10-01T20:56:33.595Z,100431.97
2022-10-01T20:59:41.037Z,100431.47
2022-10-01T21:02:50.937Z,100427.00
2022-10-01T21:05:58.498Z,100435.44
2022-10-01T21:09:04.196Z,100444.34
2022-10-01T21:12:16.088Z,100441.63
2022-10-01T21:15:20.810Z,100446.00
2022-10-01T21:18:38.778Z,100444.34
2022-10-01T21:21:54.553Z,100452.25
2022-10-01T21:25:04.290Z,100459.19
2022-10-01T21:28:25.215Z,100472.69
2022-10-01T21:31:41.624Z,100470.09
2022-10-01T21:34:59.310Z,100482.38
2022-10-01T21:38:11.197Z,100479.78
2022-10-01T21:41:36.577Z,100497.00
2022-10-01T21:45:10.018Z,100495.00
2022-10-01T21:48:27.561Z,100494.16
2022-10-01T21:51:46.181Z,100502.66
2022-10-01T21:55:15.843Z,100505.94
2022-10-01T21:58:34.407Z,100517.25
2022-10-01T22:01:54.037Z,100517.34
2022-10-01T22:05:02.286Z,100523.59
2022-10-01T22:08:19.003Z,100529.50
2022-10-01T22:11:24.312Z,100519.56
2022-10-01T22:14:28.211Z,100539.69
2022-10-01T22:17:34.513Z,100532.06
2022-10-01T22:20:41.996Z,100541.25
2022-10-01T22:23:53.584Z,100546.91
2022-10-01T22:27:04.852Z,100547.34
2022-10-01T22:30:11.833Z,100553.75
2022-10-01T22:33:20.923Z,100551.88
2022-10-01T22:36:30.934Z,100553.22
2022-10-01T22:39:40.665Z,100567.25
2022-10-01T22:42:55.923Z,100562.22
2022-10-01T22:46:25.920Z,100576.72
2022-10-01T22:49:39.809Z,100567.13
2022-10-01T22:52:54.499Z,100575.34
2022-10-01T22:55:58.625Z,100578.59
2022-10-01T22:59:12.020Z,100573.69
2022-10-01T23:02:24.417Z,100562.75
2022-10-01T23:05:41.779Z,100560.47
2022-10-01T23:08:51.360Z,100560.50
2022-10-01T23:12:01.544Z,100558.94
2022-10-01T23:15:18.262Z,100556.22
2022-10-01T23:18:35.177Z,100556.50
2022-10-01T23:21:46.942Z,100567.09
2022-10-01T23:25:04.938Z,100571.63
2022-10-01T23:28:23.278Z,100575.13
2022-10-01T23:31:34.681Z,100576.69
2022-10-01T23:34:47.418Z,100570.94
2022-10-01T23:38:04.539Z,100574.84
2022-10-01T23:41:15.181Z,100579.53
2022-10-01T23:44:30.384Z,100574.34
2022-10-01T23:47:39.147Z,100588.91
2022-10-01T23:50:49.042Z,100594.69
2022-10-01T23:53:58.440Z,100592.84
2022-10-01T23:57:07.594Z,100600.63
